createdAt,value
2019-05-18T00:02:10.997Z,92.30
2019-05-18T00:04:45.726Z,92.10
2019-05-18T00:07:20.454Z,92.20
2019-05-18T00:09:55.214Z,92.40
2019-05-18T00:12:30.014Z,92.80
2019-05-18T00:15:06.887Z,93.00
2019-05-18T00:17:41.671Z,93.10
2019-05-18T00:20:16.431Z,93.30
2019-05-18T00:22:51.167Z,93.30
2019-05-18T00:25:25.867Z,93.30
2019-05-18T00:28:00.669Z,93.20
2019-05-18T00:30:35.436Z,93.10
2019-05-18T00:33:10.157Z,92.80
2019-05-18T00:35:44.854Z,92.70
2019-05-18T00:38:19.649Z,92.80
2019-05-18T00:40:54.415Z,92.80
2019-05-18T00:43:29.214Z,93.00
2019-05-18T00:46:05.755Z,93.00
2019-05-18T00:48:40.556Z,92.90
2019-05-18T00:51:15.398Z,92.80
2019-05-18T00:53:50.150Z,92.60
2019-05-18T00:56:24.888Z,92.60
2019-05-18T00:58:59.685Z,92.70
2019-05-18T01:01:34.379Z,93.00
2019-05-18T01:04:09.104Z,92.80
2019-05-18T01:06:43.869Z,92.90
2019-05-18T01:09:18.674Z,92.80
2019-05-18T01:11:53.444Z,92.70
2019-05-18T01:14:28.172Z,92.70
2019-05-18T01:17:02.881Z,92.80
2019-05-18T01:19:37.672Z,92.80
2019-05-18T01:22:12.442Z,92.60
2019-05-18T01:24:47.325Z,92.50
2019-05-18T01:27:22.118Z,92.40
2019-05-18T01:29:56.845Z,92.50
2019-05-18T01:32:31.552Z,92.50
2019-05-18T01:35:08.121Z,92.60
2019-05-18T01:37:42.805Z,92.50
2019-05-18T01:40:17.706Z,92.80
2019-05-18T01:42:52.441Z,92.90
2019-05-18T01:45:27.222Z,92.90
2019-05-18T01:48:13.161Z,92.70
2019-05-18T01:50:39.262Z,92.80
2019-05-18T01:53:14.030Z,92.80
2019-05-18T01:55:48.829Z,92.80
2019-05-18T01:58:23.525Z,92.80
2019-05-18T02:00:58.338Z,92.60
2019-05-18T02:03:33.094Z,92.50
2019-05-18T02:06:07.900Z,92.50
2019-05-18T02:08:42.664Z,92.50
2019-05-18T02:11:17.325Z,92.60
2019-05-18T02:13:52.082Z,92.80
2019-05-18T02:16:26.820Z,93.00
2019-05-18T02:19:01.592Z,93.00
2019-05-18T02:21:36.398Z,92.90
2019-05-18T02:24:11.190Z,93.00
2019-05-18T02:26:45.987Z,93.50
2019-05-18T02:29:20.756Z,93.70
2019-05-18T02:31:55.484Z,93.70
2019-05-18T02:34:30.246Z,93.60
2019-05-18T02:37:05.058Z,93.60
2019-05-18T02:39:39.743Z,93.60
2019-05-18T02:42:14.542Z,93.70
2019-05-18T02:44:49.319Z,93.80
2019-05-18T02:47:24.124Z,93.80
2019-05-18T02:49:58.893Z,93.70
2019-05-18T02:52:33.695Z,93.70
2019-05-18T02:55:08.860Z,93.60
2019-05-18T02:57:43.662Z,93.50
2019-05-18T03:00:18.527Z,93.40
2019-05-18T03:02:53.388Z,93.30
2019-05-18T03:05:28.179Z,93.30
2019-05-18T03:08:03.010Z,93.40
2019-05-18T03:10:37.763Z,93.50
2019-05-18T03:13:12.566Z,93.60
2019-05-18T03:15:47.289Z,93.70
2019-05-18T03:18:22.055Z,93.70
2019-05-18T03:20:56.824Z,93.70
2019-05-18T03:23:31.666Z,93.60
2019-05-18T03:26:06.407Z,93.50
2019-05-18T03:28:41.214Z,93.20
2019-05-18T03:31:15.919Z,93.10
2019-05-18T03:33:50.651Z,92.90
2019-05-18T03:36:25.425Z,93.00
2019-05-18T03:39:00.150Z,92.90
2019-05-18T03:41:34.929Z,92.90
2019-05-18T03:44:09.663Z,92.60
2019-05-18T03:46:44.426Z,92.60
2019-05-18T03:49:27.054Z,92.50
2019-05-18T03:51:55.550Z,92.30
2019-05-18T03:54:30.608Z,92.50
2019-05-18T03:57:05.259Z,92.20
2019-05-18T03:59:39.962Z,92.40
2019-05-18T04:02:14.654Z,92.60
2019-05-18T04:04:49.390Z,92.80
2019-05-18T04:07:24.015Z,92.70
2019-05-18T04:09:58.816Z,92.70
2019-05-18T04:12:34.092Z,92.80
2019-05-18T04:15:09.866Z,92.80
2019-05-18T04:17:44.499Z,92.20
2019-05-18T04:20:19.306Z,92.00
2019-05-18T04:22:54.080Z,92.10
2019-05-18T04:25:28.882Z,92.30
2019-05-18T04:28:03.650Z,92.00
2019-05-18T04:30:38.316Z,92.00
2019-05-18T04:33:13.028Z,92.00
2019-05-18T04:35:47.749Z,92.00
2019-05-18T04:38:22.440Z,91.90
2019-05-18T04:40:57.240Z,91.70
2019-05-18T04:43:32.015Z,91.00
2019-05-18T04:46:06.810Z,90.40
2019-05-18T04:48:41.596Z,90.00
2019-05-18T04:51:16.330Z,90.20
2019-05-18T04:53:51.096Z,90.10
2019-05-18T04:56:25.833Z,88.90
2019-05-18T04:59:00.447Z,88.50
2019-05-18T05:01:35.214Z,87.50
2019-05-18T05:04:09.894Z,88.60
2019-05-18T05:06:44.631Z,88.60
2019-05-18T05:09:19.569Z,90.10
2019-05-18T05:11:54.295Z,89.50
2019-05-18T05:14:28.930Z,89.80
2019-05-18T05:17:03.668Z,88.60
2019-05-18T05:19:38.371Z,88.30
2019-05-18T05:22:13.166Z,88.70
2019-05-18T05:24:47.867Z,86.40
2019-05-18T05:27:22.687Z,84.40
2019-05-18T05:29:57.339Z,83.20
2019-05-18T05:32:31.964Z,82.00
2019-05-18T05:35:07.124Z,82.90
2019-05-18T05:37:42.027Z,82.90
2019-05-18T05:40:17.670Z,84.10
2019-05-18T05:42:52.429Z,85.60
2019-05-18T05:45:27.194Z,84.70
2019-05-18T05:48:01.973Z,84.60
2019-05-18T05:50:36.885Z,82.60
2019-05-18T05:53:11.748Z,83.00
2019-05-18T05:55:46.520Z,81.20
2019-05-18T05:58:21.245Z,82.40
2019-05-18T06:00:55.941Z,83.00
2019-05-18T06:03:30.671Z,83.00
2019-05-18T06:06:05.367Z,83.80
2019-05-18T06:08:40.197Z,83.10
2019-05-18T06:11:14.959Z,84.30
2019-05-18T06:13:49.621Z,82.20
2019-05-18T06:16:24.388Z,82.00
2019-05-18T06:18:59.123Z,81.40
2019-05-18T06:21:33.888Z,80.80
2019-05-18T06:24:08.690Z,80.00
2019-05-18T06:26:43.418Z,80.60
2019-05-18T06:29:18.208Z,78.80
2019-05-18T06:31:52.923Z,74.90
2019-05-18T06:34:27.643Z,73.90
2019-05-18T06:37:02.339Z,71.80
2019-05-18T06:39:37.269Z,73.90
2019-05-18T06:42:11.850Z,70.50
2019-05-18T06:44:46.655Z,69.80
2019-05-18T06:47:21.308Z,69.80
2019-05-18T06:49:56.003Z,66.90
2019-05-18T06:52:30.713Z,68.10
2019-05-18T06:55:06.718Z,67.30
2019-05-18T06:57:41.991Z,66.60
2019-05-18T07:00:16.879Z,66.70
2019-05-18T07:02:51.666Z,64.70
2019-05-18T07:05:26.394Z,62.30
2019-05-18T07:08:01.164Z,61.90
2019-05-18T07:10:35.868Z,61.90
2019-05-18T07:13:10.563Z,64.70
2019-05-18T07:15:45.349Z,64.00
2019-05-18T07:18:19.967Z,63.80
2019-05-18T07:20:54.618Z,62.00
2019-05-18T07:23:29.380Z,63.70
2019-05-18T07:26:04.173Z,67.10
2019-05-18T07:28:38.936Z,66.20
2019-05-18T07:31:13.662Z,66.00
2019-05-18T07:33:48.350Z,65.50
2019-05-18T07:36:23.140Z,67.00
2019-05-18T07:38:57.767Z,68.10
2019-05-18T07:41:45.895Z,67.40
2019-05-18T07:44:08.943Z,66.60
2019-05-18T07:46:43.743Z,69.00
2019-05-18T07:49:18.452Z,69.70
2019-05-18T07:51:58.783Z,69.40
2019-05-18T07:54:33.419Z,66.00
2019-05-18T07:57:08.223Z,65.60
2019-05-18T07:59:43.036Z,65.00
2019-05-18T08:02:17.653Z,65.70
2019-05-18T08:04:52.451Z,66.00
2019-05-18T08:07:27.259Z,66.70
2019-05-18T08:10:01.894Z,67.30
2019-05-18T08:12:36.671Z,64.90
2019-05-18T08:15:11.726Z,64.10
2019-05-18T08:17:46.386Z,64.90
2019-05-18T08:20:21.174Z,63.60
2019-05-18T08:22:55.966Z,63.70
2019-05-18T08:25:30.664Z,63.20
2019-05-18T08:28:05.474Z,64.00
2019-05-18T08:30:40.233Z,60.50
2019-05-18T08:33:15.052Z,62.10
2019-05-18T08:35:49.672Z,59.90
2019-05-18T08:38:24.371Z,60.70
2019-05-18T08:40:59.034Z,62.20
2019-05-18T08:43:33.834Z,61.10
2019-05-18T08:46:08.547Z,62.00
2019-05-18T08:48:43.302Z,62.60
2019-05-18T08:51:18.066Z,63.30
2019-05-18T08:53:52.892Z,60.50
2019-05-18T08:56:27.640Z,62.80
2019-05-18T08:59:02.808Z,62.20
2019-05-18T09:01:37.567Z,63.50
2019-05-18T09:04:12.364Z,64.20
2019-05-18T09:06:46.995Z,64.80
2019-05-18T09:09:21.642Z,63.90
2019-05-18T09:11:56.360Z,64.10
2019-05-18T09:14:31.126Z,63.50
2019-05-18T09:17:05.822Z,65.30
2019-05-18T09:19:40.614Z,66.10
2019-05-18T09:22:22.839Z,64.40
2019-05-18T09:24:51.787Z,65.60
2019-05-18T09:27:26.365Z,64.90
2019-05-18T09:30:01.115Z,64.10
2019-05-18T09:32:35.943Z,63.50
2019-05-18T09:35:11.301Z,63.20
2019-05-18T09:37:46.006Z,64.40
2019-05-18T09:40:20.810Z,63.90
2019-05-18T09:42:55.490Z,64.10
2019-05-18T09:45:30.794Z,64.60
2019-05-18T09:48:05.713Z,66.30
2019-05-18T09:50:40.586Z,63.80
2019-05-18T09:53:15.348Z,62.50
2019-05-18T09:55:50.176Z,59.00
2019-05-18T09:58:24.913Z,58.30
2019-05-18T10:00:59.704Z,58.70
2019-05-18T10:03:34.451Z,58.50
2019-05-18T10:06:09.272Z,58.40
2019-05-18T10:08:44.004Z,59.90
2019-05-18T10:11:18.800Z,60.00
2019-05-18T10:13:53.561Z,58.70
2019-05-18T10:16:28.358Z,58.70
2019-05-18T10:19:03.003Z,59.50
2019-05-18T10:21:37.833Z,58.00
2019-05-18T10:24:12.614Z,60.60
2019-05-18T10:26:47.327Z,56.90
2019-05-18T10:29:21.987Z,55.40
2019-05-18T10:31:56.714Z,55.00
2019-05-18T10:34:31.473Z,53.40
2019-05-18T10:37:06.259Z,54.60
2019-05-18T10:39:40.976Z,55.20
2019-05-18T10:42:15.911Z,56.30
2019-05-18T10:44:50.882Z,57.70
2019-05-18T10:47:25.608Z,58.40
2019-05-18T10:50:00.329Z,55.90
2019-05-18T10:52:35.029Z,55.60
2019-05-18T10:55:10.314Z,56.90
2019-05-18T10:57:45.084Z,58.70
2019-05-18T11:00:20.546Z,58.30
2019-05-18T11:02:55.232Z,58.30
2019-05-18T11:05:30.028Z,58.10
2019-05-18T11:08:04.818Z,58.60
2019-05-18T11:10:39.575Z,58.10
2019-05-18T11:13:17.119Z,57.60
2019-05-18T11:15:50.705Z,56.80
2019-05-18T11:18:25.463Z,57.80
2019-05-18T11:21:00.250Z,58.40
2019-05-18T11:23:43.174Z,58.20
2019-05-18T11:26:11.424Z,56.00
2019-05-18T11:28:46.123Z,56.50
2019-05-18T11:31:20.922Z,56.90
2019-05-18T11:33:55.638Z,55.50
2019-05-18T11:36:30.422Z,54.80
2019-05-18T11:39:06.793Z,56.20
2019-05-18T11:41:41.587Z,55.50
2019-05-18T11:44:16.359Z,53.90
2019-05-18T11:46:51.148Z,55.10
2019-05-18T11:49:28.960Z,54.40
2019-05-18T11:52:02.267Z,55.10
2019-05-18T11:54:37.017Z,56.60
2019-05-18T11:57:11.754Z,56.70
2019-05-18T11:59:46.510Z,55.80
2019-05-18T12:02:21.252Z,56.00
2019-05-18T12:04:55.939Z,52.20
2019-05-18T12:07:30.727Z,52.10
2019-05-18T12:10:08.782Z,51.70
2019-05-18T12:12:43.585Z,51.60
2019-05-18T12:15:20.242Z,51.00
2019-05-18T12:17:55.043Z,49.30
2019-05-18T12:20:29.804Z,48.50
2019-05-18T12:23:07.982Z,50.20
2019-05-18T12:25:40.988Z,49.90
2019-05-18T12:28:15.726Z,50.00
2019-05-18T12:30:50.467Z,50.50
2019-05-18T12:33:25.209Z,49.30
2019-05-18T12:35:59.965Z,47.80
2019-05-18T12:38:34.751Z,49.80
2019-05-18T12:41:10.575Z,50.20
2019-05-18T12:43:45.381Z,51.10
2019-05-18T12:46:19.998Z,51.40
2019-05-18T12:48:54.818Z,49.30
2019-05-18T12:51:29.562Z,49.20
2019-05-18T12:54:04.356Z,48.40
2019-05-18T12:56:39.113Z,48.50
2019-05-18T12:59:13.833Z,47.90
2019-05-18T13:01:48.592Z,47.80
2019-05-18T13:04:23.325Z,48.50
2019-05-18T13:06:58.107Z,47.50
2019-05-18T13:09:32.830Z,49.00
2019-05-18T13:12:07.595Z,48.30
2019-05-18T13:14:42.382Z,47.50
2019-05-18T13:17:17.072Z,50.60
2019-05-18T13:19:51.876Z,48.40
2019-05-18T13:22:26.634Z,48.10
2019-05-18T13:25:01.279Z,48.30
2019-05-18T13:27:39.518Z,48.70
2019-05-18T13:30:13.668Z,48.20
2019-05-18T13:32:48.324Z,50.80
2019-05-18T13:35:23.078Z,49.00
2019-05-18T13:37:57.785Z,47.60
2019-05-18T13:40:32.576Z,48.50
2019-05-18T13:43:07.342Z,48.60
2019-05-18T13:45:42.131Z,47.80
2019-05-18T13:48:16.802Z,45.70
2019-05-18T13:50:51.628Z,47.00
2019-05-18T13:53:26.307Z,46.60
2019-05-18T13:56:01.098Z,47.10
2019-05-18T13:58:35.792Z,46.10
2019-05-18T14:01:10.582Z,47.70
2019-05-18T14:03:45.355Z,47.50
2019-05-18T14:06:20.179Z,47.30
2019-05-18T14:08:54.927Z,47.00
2019-05-18T14:11:29.723Z,46.60
2019-05-18T14:14:04.800Z,47.40
2019-05-18T14:16:39.447Z,47.90
2019-05-18T14:19:14.205Z,47.60
2019-05-18T14:21:48.854Z,48.10
2019-05-18T14:24:23.615Z,48.20
2019-05-18T14:26:58.434Z,48.90
2019-05-18T14:29:33.059Z,47.90
2019-05-18T14:32:10.856Z,47.90
2019-05-18T14:34:44.247Z,46.90
2019-05-18T14:37:19.403Z,46.70
2019-05-18T14:39:54.087Z,47.80
2019-05-18T14:42:28.911Z,47.30
2019-05-18T14:45:05.657Z,48.30
2019-05-18T14:47:40.321Z,47.50
2019-05-18T14:50:16.079Z,47.80
2019-05-18T14:52:50.866Z,47.90
2019-05-18T14:55:33.359Z,48.20
2019-05-18T14:58:02.085Z,48.10
2019-05-18T15:00:38.479Z,48.50
2019-05-18T15:03:13.239Z,47.60
2019-05-18T15:05:47.978Z,48.30
2019-05-18T15:08:22.999Z,46.70
2019-05-18T15:10:57.672Z,46.40
2019-05-18T15:13:32.463Z,47.00
2019-05-18T15:16:07.249Z,48.40
2019-05-18T15:18:41.981Z,47.90
2019-05-18T15:21:16.767Z,47.70
2019-05-18T15:23:51.527Z,47.40
2019-05-18T15:26:26.280Z,47.70
2019-05-18T15:29:01.073Z,47.90
2019-05-18T15:31:35.757Z,46.20
2019-05-18T15:34:10.559Z,47.20
2019-05-18T15:36:45.332Z,47.60
2019-05-18T15:39:20.154Z,45.80
2019-05-18T15:41:54.842Z,45.80
2019-05-18T15:44:29.635Z,45.70
2019-05-18T15:47:05.336Z,46.90
2019-05-18T15:49:40.137Z,48.90
2019-05-18T15:52:14.844Z,47.50
2019-05-18T15:54:49.636Z,47.00
2019-05-18T15:57:24.325Z,47.30
2019-05-18T15:59:58.981Z,48.10
2019-05-18T16:02:33.747Z,49.00
2019-05-18T16:05:09.244Z,49.20
2019-05-18T16:07:43.997Z,49.10
2019-05-18T16:10:23.142Z,49.90
2019-05-18T16:12:57.999Z,50.00
2019-05-18T16:15:33.546Z,48.70
2019-05-18T16:18:08.328Z,48.40
2019-05-18T16:20:44.625Z,49.60
2019-05-18T16:23:19.408Z,48.80
2019-05-18T16:25:54.202Z,48.70
2019-05-18T16:28:28.955Z,48.00
2019-05-18T16:31:03.757Z,48.60
2019-05-18T16:33:41.267Z,49.60
2019-05-18T16:36:15.974Z,49.70
2019-05-18T16:38:50.594Z,49.10
2019-05-18T16:41:25.461Z,49.50
2019-05-18T16:44:00.149Z,50.00
2019-05-18T16:46:34.978Z,50.20
2019-05-18T16:49:09.732Z,50.50
2019-05-18T16:51:44.449Z,50.10
2019-05-18T16:54:19.189Z,49.50
2019-05-18T16:56:53.918Z,49.70
2019-05-18T16:59:28.580Z,49.80
2019-05-18T17:02:03.348Z,50.10
2019-05-18T17:04:38.124Z,49.70
2019-05-18T17:07:12.918Z,51.00
2019-05-18T17:09:47.693Z,51.80
2019-05-18T17:12:22.351Z,50.30
2019-05-18T17:14:57.153Z,50.90
2019-05-18T17:17:35.122Z,51.30
2019-05-18T17:20:08.921Z,52.30
2019-05-18T17:22:43.766Z,51.50
2019-05-18T17:25:18.568Z,51.70
2019-05-18T17:27:53.291Z,52.50
2019-05-18T17:30:28.053Z,52.30
2019-05-18T17:33:02.844Z,52.40
2019-05-18T17:35:37.605Z,52.40
2019-05-18T17:38:12.406Z,52.70
2019-05-18T17:40:47.163Z,53.50
2019-05-18T17:43:21.919Z,54.00
2019-05-18T17:45:56.884Z,54.50
2019-05-18T17:48:31.687Z,54.80
2019-05-18T17:51:06.388Z,55.30
2019-05-18T17:53:41.142Z,56.40
2019-05-18T17:56:15.902Z,59.30
2019-05-18T17:58:50.643Z,61.30
2019-05-18T18:01:25.383Z,61.70
2019-05-18T18:04:00.103Z,62.60
2019-05-18T18:06:34.811Z,63.90
2019-05-18T18:09:09.615Z,65.70
2019-05-18T18:11:44.379Z,66.70
2019-05-18T18:14:19.119Z,67.50
2019-05-18T18:16:53.820Z,67.70
2019-05-18T18:19:28.556Z,67.50
2019-05-18T18:22:03.280Z,67.20
2019-05-18T18:24:38.130Z,67.70
2019-05-18T18:27:24.677Z,67.50
2019-05-18T18:29:49.163Z,67.80
2019-05-18T18:32:23.775Z,67.80
2019-05-18T18:34:58.389Z,67.70
2019-05-18T18:37:33.039Z,68.10
2019-05-18T18:40:08.130Z,68.80
2019-05-18T18:42:42.969Z,69.20
2019-05-18T18:45:18.362Z,69.20
2019-05-18T18:48:12.323Z,69.20
2019-05-18T18:50:47.127Z,69.70
2019-05-18T18:53:21.888Z,70.40
2019-05-18T18:55:56.614Z,69.90
2019-05-18T18:58:31.303Z,70.20
2019-05-18T19:01:06.116Z,70.50
2019-05-18T19:03:40.808Z,70.80
2019-05-18T19:06:15.645Z,71.20
2019-05-18T19:08:50.395Z,71.70
2019-05-18T19:11:25.203Z,72.10
2019-05-18T19:13:59.984Z,72.00
2019-05-18T19:16:34.727Z,72.30
2019-05-18T19:19:09.488Z,72.40
2019-05-18T19:21:44.281Z,73.10
2019-05-18T19:24:19.026Z,73.30
2019-05-18T19:26:53.835Z,73.80
2019-05-18T19:29:28.523Z,74.20
2019-05-18T19:32:03.342Z,74.80
2019-05-18T19:34:38.104Z,76.10
2019-05-18T19:37:12.908Z,76.00
2019-05-18T19:39:47.672Z,75.90
2019-05-18T19:42:22.405Z,75.90
2019-05-18T19:44:57.107Z,75.20
2019-05-18T19:47:31.826Z,74.90
2019-05-18T19:50:09.650Z,75.30
2019-05-18T19:52:44.312Z,76.70
2019-05-18T19:55:19.083Z,76.70
2019-05-18T19:57:53.889Z,76.90
2019-05-18T20:00:28.652Z,77.20
2019-05-18T20:03:03.412Z,78.30
2019-05-18T20:05:38.142Z,78.50
2019-05-18T20:08:12.957Z,78.70
2019-05-18T20:10:47.727Z,78.60
2019-05-18T20:13:22.415Z,78.90
2019-05-18T20:15:57.067Z,79.10
2019-05-18T20:18:31.872Z,79.10
2019-05-18T20:21:06.567Z,79.40
2019-05-18T20:23:41.381Z,79.30
2019-05-18T20:26:16.076Z,79.40
2019-05-18T20:28:50.809Z,79.20
2019-05-18T20:31:25.570Z,79.30
2019-05-18T20:34:00.377Z,80.40
2019-05-18T20:36:35.076Z,80.10
2019-05-18T20:39:09.831Z,80.00
2019-05-18T20:41:44.450Z,80.30
2019-05-18T20:44:19.171Z,80.40
2019-05-18T20:46:53.798Z,80.90
2019-05-18T20:49:28.605Z,81.20
2019-05-18T20:52:03.372Z,81.40
2019-05-18T20:54:38.137Z,82.00
2019-05-18T20:57:12.827Z,82.80
2019-05-18T20:59:47.560Z,83.10
2019-05-18T21:02:22.175Z,83.50
2019-05-18T21:04:56.843Z,83.90
2019-05-18T21:07:31.622Z,84.00
2019-05-18T21:10:07.432Z,83.60
2019-05-18T21:12:42.127Z,84.30
2019-05-18T21:15:17.059Z,84.10
2019-05-18T21:17:51.820Z,84.50
2019-05-18T21:20:26.622Z,84.40
2019-05-18T21:23:01.389Z,84.10
2019-05-18T21:25:36.191Z,84.10
2019-05-18T21:28:11.007Z,84.50
2019-05-18T21:30:45.774Z,84.50
2019-05-18T21:33:20.451Z,84.30
2019-05-18T21:35:55.178Z,84.40
2019-05-18T21:38:29.959Z,84.40
2019-05-18T21:41:04.715Z,84.60
2019-05-18T21:43:39.482Z,84.60
2019-05-18T21:46:14.203Z,84.80
2019-05-18T21:48:48.897Z,85.30
2019-05-18T21:51:23.558Z,85.50
2019-05-18T21:53:58.179Z,85.60
2019-05-18T21:56:32.859Z,85.90
2019-05-18T21:59:11.759Z,86.30
2019-05-18T22:01:44.132Z,86.30
2019-05-18T22:04:18.894Z,87.00
2019-05-18T22:06:53.698Z,87.40
2019-05-18T22:09:28.500Z,88.10
2019-05-18T22:12:03.352Z,87.90
2019-05-18T22:14:38.056Z,87.80
2019-05-18T22:17:12.787Z,88.00
2019-05-18T22:19:47.550Z,88.60
2019-05-18T22:22:22.220Z,88.40
2019-05-18T22:24:56.848Z,88.30
2019-05-18T22:27:31.519Z,88.30
2019-05-18T22:30:06.586Z,88.20
2019-05-18T22:32:41.378Z,88.10
2019-05-18T22:35:16.146Z,88.30
2019-05-18T22:37:50.944Z,88.70
2019-05-18T22:40:25.642Z,89.00
2019-05-18T22:43:00.451Z,89.10
2019-05-18T22:45:35.219Z,89.20
2019-05-18T22:48:10.023Z,89.30
2019-05-18T22:50:44.791Z,89.50
2019-05-18T22:53:19.518Z,89.20
2019-05-18T22:55:54.234Z,89.10
2019-05-18T22:58:28.966Z,89.10
2019-05-18T23:01:03.719Z,89.10
2019-05-18T23:03:38.461Z,90.20
2019-05-18T23:06:13.157Z,90.20
2019-05-18T23:08:47.886Z,90.00
2019-05-18T23:11:22.582Z,90.00
2019-05-18T23:13:57.387Z,89.60
2019-05-18T23:16:32.087Z,90.00
2019-05-18T23:19:06.891Z,90.00
2019-05-18T23:21:41.589Z,90.00
2019-05-18T23:24:16.463Z,89.90
2019-05-18T23:26:51.219Z,89.80
2019-05-18T23:29:26.031Z,89.40
2019-05-18T23:32:00.670Z,89.70
2019-05-18T23:34:35.297Z,89.70
2019-05-18T23:37:10.066Z,89.50
2019-05-18T23:39:44.878Z,89.90
2019-05-18T23:42:19.578Z,89.90
2019-05-18T23:44:54.312Z,89.30
2019-05-18T23:47:29.008Z,89.30
2019-05-18T23:50:03.842Z,89.60
2019-05-18T23:52:38.606Z,90.00
2019-05-18T23:55:13.472Z,89.60
2019-05-18T23:57:48.175Z,89.90
